sensor_id;sensor_type;location;lat;lon;timestamp;P1;durP1;ratioP1;P2;durP2;ratioP2
25439;SDS011;13365;52.208;5.488;2023-07-20T00:01:30;5.07;;;1.70;;
25439;SDS011;13365;52.208;5.488;2023-07-20T00:03:55;5.82;;;1.70;;
25439;SDS011;13365;52.208;5.488;2023-07-20T00:06:21;3.53;;;1.30;;
25439;SDS011;13365;52.208;5.488;2023-07-20T00:08:48;2.10;;;1.30;;
25439;SDS011;13365;52.208;5.488;2023-07-20T00:11:14;2.50;;;1.33;;
25439;SDS011;13365;52.208;5.488;2023-07-20T00:13:40;3.05;;;1.30;;
25439;SDS011;13365;52.208;5.488;2023-07-20T00:16:05;2.80;;;1.27;;
25439;SDS011;13365;52.208;5.488;2023-07-20T00:18:31;2.83;;;1.42;;
25439;SDS011;13365;52.208;5.488;2023-07-20T00:20:57;1.60;;;1.10;;
25439;SDS011;13365;52.208;5.488;2023-07-20T00:23:24;5.35;;;1.30;;
25439;SDS011;13365;52.208;5.488;2023-07-20T00:25:50;1.67;;;0.88;;
25439;SDS011;13365;52.208;5.488;2023-07-20T00:28:16;14.65;;;1.13;;
25439;SDS011;13365;52.208;5.488;2023-07-20T00:30:42;1.52;;;1.10;;
25439;SDS011;13365;52.208;5.488;2023-07-20T00:33:10;5.07;;;1.00;;
25439;SDS011;13365;52.208;5.488;2023-07-20T00:35:37;1.73;;;1.20;;
25439;SDS011;13365;52.208;5.488;2023-07-20T00:38:03;2.10;;;1.23;;
25439;SDS011;13365;52.208;5.488;2023-07-20T00:40:35;4.68;;;1.30;;
25439;SDS011;13365;52.208;5.488;2023-07-20T00:43:01;2.85;;;1.27;;
25439;SDS011;13365;52.208;5.488;2023-07-20T00:45:28;2.55;;;1.30;;
25439;SDS011;13365;52.208;5.488;2023-07-20T00:47:54;2.03;;;1.33;;
25439;SDS011;13365;52.208;5.488;2023-07-20T00:50:20;7.32;;;2.40;;
25439;SDS011;13365;52.208;5.488;2023-07-20T00:52:45;3.75;;;2.20;;
25439;SDS011;13365;52.208;5.488;2023-07-20T00:55:11;7.13;;;2.38;;
25439;SDS011;13365;52.208;5.488;2023-07-20T00:57:37;3.63;;;2.30;;
25439;SDS011;13365;52.208;5.488;2023-07-20T01:00:03;3.40;;;2.08;;
25439;SDS011;13365;52.208;5.488;2023-07-20T01:02:29;3.75;;;2.30;;
25439;SDS011;13365;52.208;5.488;2023-07-20T01:04:54;5.57;;;2.72;;
25439;SDS011;13365;52.208;5.488;2023-07-20T01:07:24;3.67;;;2.30;;
25439;SDS011;13365;52.208;5.488;2023-07-20T01:12:42;2.00;;;1.23;;
25439;SDS011;13365;52.208;5.488;2023-07-20T01:15:08;1.92;;;1.30;;
25439;SDS011;13365;52.208;5.488;2023-07-20T01:17:35;1.10;;;1.00;;
25439;SDS011;13365;52.208;5.488;2023-07-20T01:20:01;4.95;;;1.17;;
25439;SDS011;13365;52.208;5.488;2023-07-20T01:22:33;2.25;;;1.25;;
25439;SDS011;13365;52.208;5.488;2023-07-20T01:28:23;1.60;;;0.95;;
25439;SDS011;13365;52.208;5.488;2023-07-20T01:31:25;5.45;;;1.40;;
25439;SDS011;13365;52.208;5.488;2023-07-20T01:33:56;2.72;;;1.13;;
25439;SDS011;13365;52.208;5.488;2023-07-20T01:36:23;1.90;;;1.23;;
25439;SDS011;13365;52.208;5.488;2023-07-20T01:38:51;2.28;;;1.52;;
25439;SDS011;13365;52.208;5.488;2023-07-20T01:41:17;1.90;;;1.20;;
25439;SDS011;13365;52.208;5.488;2023-07-20T01:43:43;1.55;;;1.13;;
25439;SDS011;13365;52.208;5.488;2023-07-20T01:46:09;5.10;;;1.35;;
25439;SDS011;13365;52.208;5.488;2023-07-20T01:48:35;4.47;;;1.33;;
25439;SDS011;13365;52.208;5.488;2023-07-20T01:51:00;2.63;;;1.08;;
25439;SDS011;13365;52.208;5.488;2023-07-20T01:53:26;1.67;;;1.02;;
25439;SDS011;13365;52.208;5.488;2023-07-20T01:55:54;2.90;;;1.50;;
25439;SDS011;13365;52.208;5.488;2023-07-20T01:58:21;2.35;;;1.50;;
25439;SDS011;13365;52.208;5.488;2023-07-20T02:00:46;2.40;;;1.40;;
25439;SDS011;13365;52.208;5.488;2023-07-20T02:03:12;1.95;;;1.30;;
25439;SDS011;13365;52.208;5.488;2023-07-20T02:05:38;2.38;;;1.38;;
25439;SDS011;13365;52.208;5.488;2023-07-20T02:08:04;2.70;;;1.48;;
25439;SDS011;13365;52.208;5.488;2023-07-20T02:10:30;2.38;;;1.58;;
25439;SDS011;13365;52.208;5.488;2023-07-20T02:12:55;2.05;;;1.40;;
25439;SDS011;13365;52.208;5.488;2023-07-20T02:15:21;2.47;;;1.35;;
25439;SDS011;13365;52.208;5.488;2023-07-20T02:17:47;1.48;;;1.15;;
25439;SDS011;13365;52.208;5.488;2023-07-20T02:20:12;2.28;;;1.40;;
25439;SDS011;13365;52.208;5.488;2023-07-20T02:22:38;3.03;;;1.50;;
25439;SDS011;13365;52.208;5.488;2023-07-20T02:25:05;1.83;;;1.27;;
25439;SDS011;13365;52.208;5.488;2023-07-20T02:27:32;2.08;;;1.35;;
25439;SDS011;13365;52.208;5.488;2023-07-20T02:30:00;1.77;;;1.02;;
25439;SDS011;13365;52.208;5.488;2023-07-20T02:32:27;1.88;;;1.38;;
25439;SDS011;13365;52.208;5.488;2023-07-20T02:34:53;4.25;;;1.20;;
25439;SDS011;13365;52.208;5.488;2023-07-20T02:37:18;1.80;;;1.30;;
25439;SDS011;13365;52.208;5.488;2023-07-20T02:39:44;1.88;;;1.40;;
25439;SDS011;13365;52.208;5.488;2023-07-20T02:42:10;2.15;;;1.40;;
25439;SDS011;13365;52.208;5.488;2023-07-20T02:44:35;3.10;;;1.80;;
25439;SDS011;13365;52.208;5.488;2023-07-20T02:47:01;3.08;;;1.77;;
25439;SDS011;13365;52.208;5.488;2023-07-20T02:49:26;2.17;;;1.50;;
25439;SDS011;13365;52.208;5.488;2023-07-20T02:51:52;2.22;;;1.42;;
25439;SDS011;13365;52.208;5.488;2023-07-20T02:54:18;2.65;;;1.80;;
25439;SDS011;13365;52.208;5.488;2023-07-20T02:56:43;5.78;;;1.67;;
25439;SDS011;13365;52.208;5.488;2023-07-20T02:59:09;2.95;;;1.60;;
25439;SDS011;13365;52.208;5.488;2023-07-20T03:01:35;2.05;;;1.60;;
25439;SDS011;13365;52.208;5.488;2023-07-20T03:04:00;2.35;;;1.33;;
25439;SDS011;13365;52.208;5.488;2023-07-20T03:06:26;2.22;;;1.50;;
25439;SDS011;13365;52.208;5.488;2023-07-20T03:08:52;3.28;;;1.88;;
25439;SDS011;13365;52.208;5.488;2023-07-20T03:11:18;5.65;;;1.45;;
25439;SDS011;13365;52.208;5.488;2023-07-20T03:13:45;2.90;;;1.90;;
25439;SDS011;13365;52.208;5.488;2023-07-20T03:16:11;1.88;;;1.45;;
25439;SDS011;13365;52.208;5.488;2023-07-20T03:18:40;1.58;;;1.33;;
25439;SDS011;13365;52.208;5.488;2023-07-20T03:21:06;3.53;;;1.52;;
25439;SDS011;13365;52.208;5.488;2023-07-20T03:23:38;2.53;;;1.75;;
25439;SDS011;13365;52.208;5.488;2023-07-20T03:26:04;2.28;;;1.75;;
25439;SDS011;13365;52.208;5.488;2023-07-20T03:28:30;2.35;;;1.52;;
25439;SDS011;13365;52.208;5.488;2023-07-20T03:30:55;7.43;;;2.05;;
25439;SDS011;13365;52.208;5.488;2023-07-20T03:33:22;4.68;;;2.00;;
25439;SDS011;13365;52.208;5.488;2023-07-20T03:35:50;7.07;;;1.80;;
25439;SDS011;13365;52.208;5.488;2023-07-20T03:38:15;2.75;;;2.10;;
25439;SDS011;13365;52.208;5.488;2023-07-20T03:40:48;3.50;;;2.05;;
25439;SDS011;13365;52.208;5.488;2023-07-20T03:43:18;2.58;;;1.90;;
25439;SDS011;13365;52.208;5.488;2023-07-20T03:45:44;6.25;;;1.60;;
25439;SDS011;13365;52.208;5.488;2023-07-20T03:48:14;2.67;;;1.92;;
25439;SDS011;13365;52.208;5.488;2023-07-20T03:50:41;3.25;;;2.28;;
25439;SDS011;13365;52.208;5.488;2023-07-20T03:53:07;4.13;;;1.98;;
25439;SDS011;13365;52.208;5.488;2023-07-20T03:55:32;3.50;;;1.90;;
25439;SDS011;13365;52.208;5.488;2023-07-20T03:57:58;7.05;;;2.53;;
25439;SDS011;13365;52.208;5.488;2023-07-20T04:00:23;11.13;;;2.90;;
25439;SDS011;13365;52.208;5.488;2023-07-20T04:02:49;3.65;;;2.40;;
25439;SDS011;13365;52.208;5.488;2023-07-20T04:05:14;3.15;;;2.10;;
25439;SDS011;13365;52.208;5.488;2023-07-20T04:07:43;3.88;;;2.58;;
25439;SDS011;13365;52.208;5.488;2023-07-20T04:10:09;4.68;;;2.47;;
25439;SDS011;13365;52.208;5.488;2023-07-20T04:12:35;3.97;;;2.50;;
25439;SDS011;13365;52.208;5.488;2023-07-20T04:15:00;4.25;;;2.90;;
25439;SDS011;13365;52.208;5.488;2023-07-20T04:17:26;5.50;;;2.88;;
25439;SDS011;13365;52.208;5.488;2023-07-20T04:19:51;3.20;;;2.20;;
25439;SDS011;13365;52.208;5.488;2023-07-20T04:22:17;5.07;;;2.50;;
25439;SDS011;13365;52.208;5.488;2023-07-20T04:24:42;4.45;;;2.30;;
25439;SDS011;13365;52.208;5.488;2023-07-20T04:27:08;3.42;;;2.20;;
25439;SDS011;13365;52.208;5.488;2023-07-20T04:29:33;3.53;;;2.28;;
25439;SDS011;13365;52.208;5.488;2023-07-20T04:31:59;7.95;;;2.63;;
25439;SDS011;13365;52.208;5.488;2023-07-20T04:34:25;10.98;;;2.92;;
25439;SDS011;13365;52.208;5.488;2023-07-20T04:36:50;5.13;;;2.78;;
25439;SDS011;13365;52.208;5.488;2023-07-20T04:39:16;3.28;;;2.35;;
25439;SDS011;13365;52.208;5.488;2023-07-20T04:41:42;4.30;;;3.17;;
25439;SDS011;13365;52.208;5.488;2023-07-20T04:44:07;4.55;;;3.25;;
25439;SDS011;13365;52.208;5.488;2023-07-20T04:46:33;4.07;;;2.35;;
25439;SDS011;13365;52.208;5.488;2023-07-20T04:48:58;11.48;;;2.83;;
25439;SDS011;13365;52.208;5.488;2023-07-20T04:51:24;5.43;;;3.33;;
25439;SDS011;13365;52.208;5.488;2023-07-20T04:53:49;3.50;;;2.22;;
25439;SDS011;13365;52.208;5.488;2023-07-20T04:56:15;5.30;;;2.78;;
25439;SDS011;13365;52.208;5.488;2023-07-20T04:58:40;8.35;;;3.03;;
25439;SDS011;13365;52.208;5.488;2023-07-20T05:01:08;7.30;;;2.78;;
25439;SDS011;13365;52.208;5.488;2023-07-20T05:03:33;4.57;;;2.55;;
25439;SDS011;13365;52.208;5.488;2023-07-20T05:05:59;10.13;;;3.30;;
25439;SDS011;13365;52.208;5.488;2023-07-20T05:08:24;5.25;;;3.03;;
25439;SDS011;13365;52.208;5.488;2023-07-20T05:10:50;11.80;;;3.78;;
25439;SDS011;13365;52.208;5.488;2023-07-20T05:13:16;6.43;;;3.63;;
25439;SDS011;13365;52.208;5.488;2023-07-20T05:15:41;6.55;;;3.33;;
25439;SDS011;13365;52.208;5.488;2023-07-20T05:18:07;9.32;;;3.42;;
25439;SDS011;13365;52.208;5.488;2023-07-20T05:20:34;7.32;;;3.10;;
25439;SDS011;13365;52.208;5.488;2023-07-20T05:22:59;4.63;;;3.72;;
25439;SDS011;13365;52.208;5.488;2023-07-20T05:25:26;8.00;;;3.72;;
25439;SDS011;13365;52.208;5.488;2023-07-20T05:27:51;4.97;;;3.40;;
25439;SDS011;13365;52.208;5.488;2023-07-20T05:30:17;7.35;;;3.20;;
25439;SDS011;13365;52.208;5.488;2023-07-20T05:32:43;7.32;;;3.13;;
25439;SDS011;13365;52.208;5.488;2023-07-20T05:35:12;6.80;;;3.28;;
25439;SDS011;13365;52.208;5.488;2023-07-20T05:37:39;5.78;;;3.10;;
25439;SDS011;13365;52.208;5.488;2023-07-20T05:40:05;7.43;;;3.25;;
25439;SDS011;13365;52.208;5.488;2023-07-20T05:42:32;5.53;;;2.97;;
25439;SDS011;13365;52.208;5.488;2023-07-20T05:44:58;6.10;;;2.65;;
25439;SDS011;13365;52.208;5.488;2023-07-20T05:47:23;10.38;;;2.95;;
25439;SDS011;13365;52.208;5.488;2023-07-20T05:49:49;8.32;;;3.25;;
25439;SDS011;13365;52.208;5.488;2023-07-20T05:52:14;6.28;;;3.08;;
25439;SDS011;13365;52.208;5.488;2023-07-20T05:54:40;4.50;;;2.58;;
25439;SDS011;13365;52.208;5.488;2023-07-20T05:57:06;4.97;;;3.00;;
25439;SDS011;13365;52.208;5.488;2023-07-20T05:59:31;3.63;;;2.33;;
25439;SDS011;13365;52.208;5.488;2023-07-20T06:01:57;5.65;;;2.40;;
25439;SDS011;13365;52.208;5.488;2023-07-20T06:04:22;7.47;;;2.55;;
25439;SDS011;13365;52.208;5.488;2023-07-20T06:06:48;5.22;;;3.38;;
25439;SDS011;13365;52.208;5.488;2023-07-20T06:09:14;6.93;;;2.70;;
25439;SDS011;13365;52.208;5.488;2023-07-20T06:11:39;6.97;;;2.60;;
25439;SDS011;13365;52.208;5.488;2023-07-20T06:14:05;4.63;;;2.70;;
25439;SDS011;13365;52.208;5.488;2023-07-20T06:16:30;3.45;;;1.55;;
25439;SDS011;13365;52.208;5.488;2023-07-20T06:18:56;2.47;;;1.77;;
25439;SDS011;13365;52.208;5.488;2023-07-20T06:21:22;2.70;;;1.73;;
25439;SDS011;13365;52.208;5.488;2023-07-20T06:23:47;3.38;;;1.70;;
25439;SDS011;13365;52.208;5.488;2023-07-20T06:26:13;1.65;;;1.10;;
25439;SDS011;13365;52.208;5.488;2023-07-20T06:28:38;9.98;;;2.08;;
25439;SDS011;13365;52.208;5.488;2023-07-20T06:31:04;2.83;;;2.08;;
25439;SDS011;13365;52.208;5.488;2023-07-20T06:33:29;3.03;;;1.58;;
25439;SDS011;13365;52.208;5.488;2023-07-20T06:35:55;3.85;;;1.63;;
25439;SDS011;13365;52.208;5.488;2023-07-20T06:38:22;4.40;;;1.48;;
25439;SDS011;13365;52.208;5.488;2023-07-20T06:40:48;3.72;;;1.10;;
25439;SDS011;13365;52.208;5.488;2023-07-20T06:43:14;1.85;;;1.13;;
25439;SDS011;13365;52.208;5.488;2023-07-20T06:45:40;4.05;;;1.80;;
25439;SDS011;13365;52.208;5.488;2023-07-20T06:48:06;6.28;;;2.47;;
25439;SDS011;13365;52.208;5.488;2023-07-20T06:50:32;3.80;;;1.60;;
25439;SDS011;13365;52.208;5.488;2023-07-20T06:52:57;2.85;;;1.20;;
25439;SDS011;13365;52.208;5.488;2023-07-20T06:55:23;1.95;;;1.10;;
25439;SDS011;13365;52.208;5.488;2023-07-20T06:57:49;2.58;;;1.23;;
25439;SDS011;13365;52.208;5.488;2023-07-20T07:00:15;2.22;;;1.27;;
25439;SDS011;13365;52.208;5.488;2023-07-20T07:02:41;2.13;;;1.10;;
25439;SDS011;13365;52.208;5.488;2023-07-20T07:05:06;2.50;;;1.10;;
25439;SDS011;13365;52.208;5.488;2023-07-20T07:07:32;1.45;;;0.90;;
25439;SDS011;13365;52.208;5.488;2023-07-20T07:09:58;2.30;;;0.90;;
25439;SDS011;13365;52.208;5.488;2023-07-20T07:12:24;1.77;;;1.10;;
25439;SDS011;13365;52.208;5.488;2023-07-20T07:14:50;1.98;;;1.45;;
25439;SDS011;13365;52.208;5.488;2023-07-20T07:17:15;2.00;;;1.15;;
25439;SDS011;13365;52.208;5.488;2023-07-20T07:19:41;1.45;;;0.80;;
25439;SDS011;13365;52.208;5.488;2023-07-20T07:22:07;2.85;;;1.00;;
25439;SDS011;13365;52.208;5.488;2023-07-20T07:24:32;2.50;;;1.10;;
25439;SDS011;13365;52.208;5.488;2023-07-20T07:27:01;3.08;;;0.85;;
25439;SDS011;13365;52.208;5.488;2023-07-20T07:29:26;1.52;;;0.75;;
25439;SDS011;13365;52.208;5.488;2023-07-20T07:31:52;2.05;;;0.40;;
25439;SDS011;13365;52.208;5.488;2023-07-20T07:34:17;0.90;;;0.60;;
25439;SDS011;13365;52.208;5.488;2023-07-20T07:36:43;4.15;;;0.50;;
25439;SDS011;13365;52.208;5.488;2023-07-20T07:39:10;2.50;;;0.68;;
25439;SDS011;13365;52.208;5.488;2023-07-20T07:41:35;3.00;;;0.82;;
25439;SDS011;13365;52.208;5.488;2023-07-20T07:44:01;1.00;;;0.40;;
25439;SDS011;13365;52.208;5.488;2023-07-20T07:46:26;3.13;;;0.60;;
25439;SDS011;13365;52.208;5.488;2023-07-20T07:48:52;1.25;;;0.65;;
25439;SDS011;13365;52.208;5.488;2023-07-20T07:51:18;1.48;;;0.35;;
25439;SDS011;13365;52.208;5.488;2023-07-20T07:53:44;1.02;;;0.43;;
25439;SDS011;13365;52.208;5.488;2023-07-20T07:56:10;1.75;;;0.50;;
25439;SDS011;13365;52.208;5.488;2023-07-20T07:58:36;0.65;;;0.50;;
25439;SDS011;13365;52.208;5.488;2023-07-20T08:01:02;1.00;;;0.43;;
25439;SDS011;13365;52.208;5.488;2023-07-20T08:03:27;0.63;;;0.35;;
25439;SDS011;13365;52.208;5.488;2023-07-20T08:05:56;1.45;;;0.40;;
25439;SDS011;13365;52.208;5.488;2023-07-20T08:08:22;1.48;;;0.43;;
25439;SDS011;13365;52.208;5.488;2023-07-20T08:10:48;2.25;;;0.30;;
25439;SDS011;13365;52.208;5.488;2023-07-20T08:13:13;0.80;;;0.40;;
25439;SDS011;13365;52.208;5.488;2023-07-20T08:15:39;4.57;;;0.60;;
25439;SDS011;13365;52.208;5.488;2023-07-20T08:18:05;0.82;;;0.30;;
25439;SDS011;13365;52.208;5.488;2023-07-20T08:20:31;1.15;;;0.20;;
25439;SDS011;13365;52.208;5.488;2023-07-20T08:22:57;2.60;;;0.60;;
25439;SDS011;13365;52.208;5.488;2023-07-20T08:25:24;2.30;;;0.90;;
25439;SDS011;13365;52.208;5.488;2023-07-20T08:27:50;2.97;;;0.40;;
25439;SDS011;13365;52.208;5.488;2023-07-20T08:30:15;1.05;;;0.40;;
25439;SDS011;13365;52.208;5.488;2023-07-20T08:32:41;0.32;;;0.30;;
25439;SDS011;13365;52.208;5.488;2023-07-20T08:35:06;0.32;;;0.30;;
25439;SDS011;13365;52.208;5.488;2023-07-20T08:37:32;1.85;;;0.38;;
25439;SDS011;13365;52.208;5.488;2023-07-20T08:39:58;1.67;;;0.40;;
25439;SDS011;13365;52.208;5.488;2023-07-20T08:42:23;0.25;;;0.25;;
25439;SDS011;13365;52.208;5.488;2023-07-20T08:44:49;1.10;;;0.47;;
25439;SDS011;13365;52.208;5.488;2023-07-20T08:47:17;0.50;;;0.30;;
25439;SDS011;13365;52.208;5.488;2023-07-20T08:49:44;0.73;;;0.35;;
25439;SDS011;13365;52.208;5.488;2023-07-20T08:54:41;0.80;;;0.40;;
25439;SDS011;13365;52.208;5.488;2023-07-20T08:57:06;0.40;;;0.20;;
25439;SDS011;13365;52.208;5.488;2023-07-20T08:59:33;2.67;;;0.38;;
25439;SDS011;13365;52.208;5.488;2023-07-20T09:02:01;0.10;;;0.10;;
25439;SDS011;13365;52.208;5.488;2023-07-20T09:04:29;0.13;;;0.13;;
25439;SDS011;13365;52.208;5.488;2023-07-20T09:06:57;0.73;;;0.30;;
25439;SDS011;13365;52.208;5.488;2023-07-20T09:09:23;1.67;;;0.50;;
25439;SDS011;13365;52.208;5.488;2023-07-20T09:11:49;1.17;;;0.32;;
25439;SDS011;13365;52.208;5.488;2023-07-20T09:14:14;3.05;;;0.50;;
25439;SDS011;13365;52.208;5.488;2023-07-20T09:16:47;1.85;;;0.50;;
25439;SDS011;13365;52.208;5.488;2023-07-20T09:19:16;0.68;;;0.38;;
25439;SDS011;13365;52.208;5.488;2023-07-20T09:21:49;1.98;;;0.40;;
25439;SDS011;13365;52.208;5.488;2023-07-20T09:24:16;3.35;;;0.47;;
25439;SDS011;13365;52.208;5.488;2023-07-20T09:26:43;0.55;;;0.45;;
25439;SDS011;13365;52.208;5.488;2023-07-20T09:29:10;1.48;;;0.50;;
25439;SDS011;13365;52.208;5.488;2023-07-20T09:31:36;2.00;;;0.50;;
25439;SDS011;13365;52.208;5.488;2023-07-20T09:34:01;2.42;;;0.60;;
25439;SDS011;13365;52.208;5.488;2023-07-20T09:36:28;3.17;;;0.50;;
25439;SDS011;13365;52.208;5.488;2023-07-20T09:38:54;1.08;;;0.30;;
25439;SDS011;13365;52.208;5.488;2023-07-20T09:41:20;1.88;;;0.30;;
25439;SDS011;13365;52.208;5.488;2023-07-20T09:43:46;4.68;;;0.40;;
25439;SDS011;13365;52.208;5.488;2023-07-20T09:46:12;0.93;;;0.30;;
25439;SDS011;13365;52.208;5.488;2023-07-20T09:48:38;1.30;;;0.30;;
25439;SDS011;13365;52.208;5.488;2023-07-20T09:51:04;1.42;;;0.40;;
25439;SDS011;13365;52.208;5.488;2023-07-20T09:53:32;0.90;;;0.38;;
25439;SDS011;13365;52.208;5.488;2023-07-20T09:55:58;1.00;;;0.47;;
25439;SDS011;13365;52.208;5.488;2023-07-20T09:58:25;0.60;;;0.28;;
25439;SDS011;13365;52.208;5.488;2023-07-20T10:00:52;2.05;;;0.75;;
25439;SDS011;13365;52.208;5.488;2023-07-20T10:03:22;3.35;;;0.38;;
25439;SDS011;13365;52.208;5.488;2023-07-20T10:06:06;1.35;;;0.28;;
25439;SDS011;13365;52.208;5.488;2023-07-20T10:08:34;0.98;;;0.47;;
25439;SDS011;13365;52.208;5.488;2023-07-20T10:13:32;4.28;;;0.63;;
25439;SDS011;13365;52.208;5.488;2023-07-20T10:16:12;1.50;;;0.50;;
25439;SDS011;13365;52.208;5.488;2023-07-20T10:18:41;0.77;;;0.32;;
25439;SDS011;13365;52.208;5.488;2023-07-20T10:21:24;2.20;;;0.57;;
25439;SDS011;13365;52.208;5.488;2023-07-20T10:23:50;1.00;;;0.50;;
25439;SDS011;13365;52.208;5.488;2023-07-20T10:26:16;0.70;;;0.30;;
25439;SDS011;13365;52.208;5.488;2023-07-20T10:28:41;1.23;;;0.38;;
25439;SDS011;13365;52.208;5.488;2023-07-20T10:31:08;1.00;;;0.50;;
25439;SDS011;13365;52.208;5.488;2023-07-20T10:33:37;5.07;;;0.50;;
25439;SDS011;13365;52.208;5.488;2023-07-20T10:36:03;3.45;;;0.30;;
25439;SDS011;13365;52.208;5.488;2023-07-20T10:39:14;1.33;;;0.40;;
25439;SDS011;13365;52.208;5.488;2023-07-20T10:43:58;4.10;;;0.50;;
25439;SDS011;13365;52.208;5.488;2023-07-20T10:49:07;0.55;;;0.30;;
25439;SDS011;13365;52.208;5.488;2023-07-20T10:51:44;0.22;;;0.22;;
25439;SDS011;13365;52.208;5.488;2023-07-20T10:56:49;1.20;;;0.30;;
25439;SDS011;13365;52.208;5.488;2023-07-20T10:59:18;3.22;;;0.40;;
25439;SDS011;13365;52.208;5.488;2023-07-20T11:02:00;0.50;;;0.40;;
25439;SDS011;13365;52.208;5.488;2023-07-20T11:04:41;0.77;;;0.52;;
25439;SDS011;13365;52.208;5.488;2023-07-20T11:07:08;0.95;;;0.30;;
25439;SDS011;13365;52.208;5.488;2023-07-20T11:09:34;0.30;;;0.30;;
25439;SDS011;13365;52.208;5.488;2023-07-20T11:12:13;3.50;;;0.50;;
25439;SDS011;13365;52.208;5.488;2023-07-20T11:14:41;0.57;;;0.35;;
25439;SDS011;13365;52.208;5.488;2023-07-20T11:17:19;1.85;;;0.50;;
25439;SDS011;13365;52.208;5.488;2023-07-20T11:19:54;0.85;;;0.45;;
25439;SDS011;13365;52.208;5.488;2023-07-20T11:22:21;1.38;;;0.43;;
25439;SDS011;13365;52.208;5.488;2023-07-20T11:24:47;1.77;;;0.70;;
25439;SDS011;13365;52.208;5.488;2023-07-20T11:27:14;0.77;;;0.30;;
25439;SDS011;13365;52.208;5.488;2023-07-20T11:29:39;1.02;;;0.60;;
25439;SDS011;13365;52.208;5.488;2023-07-20T11:32:05;1.35;;;0.60;;
25439;SDS011;13365;52.208;5.488;2023-07-20T11:34:31;4.88;;;1.33;;
25439;SDS011;13365;52.208;5.488;2023-07-20T11:36:58;1.30;;;0.40;;
25439;SDS011;13365;52.208;5.488;2023-07-20T11:39:23;2.63;;;0.50;;
25439;SDS011;13365;52.208;5.488;2023-07-20T11:41:51;0.30;;;0.28;;
25439;SDS011;13365;52.208;5.488;2023-07-20T11:44:18;1.02;;;0.30;;
25439;SDS011;13365;52.208;5.488;2023-07-20T11:46:47;2.13;;;0.50;;
25439;SDS011;13365;52.208;5.488;2023-07-20T11:49:12;1.27;;;0.50;;
25439;SDS011;13365;52.208;5.488;2023-07-20T11:51:39;0.88;;;0.40;;
25439;SDS011;13365;52.208;5.488;2023-07-20T11:54:06;0.45;;;0.28;;
25439;SDS011;13365;52.208;5.488;2023-07-20T11:56:32;1.38;;;0.38;;
25439;SDS011;13365;52.208;5.488;2023-07-20T11:58:58;1.27;;;0.30;;
25439;SDS011;13365;52.208;5.488;2023-07-20T12:01:26;1.25;;;0.60;;
25439;SDS011;13365;52.208;5.488;2023-07-20T12:04:03;0.52;;;0.35;;
25439;SDS011;13365;52.208;5.488;2023-07-20T12:06:29;1.85;;;0.40;;
25439;SDS011;13365;52.208;5.488;2023-07-20T12:08:58;2.85;;;0.57;;
25439;SDS011;13365;52.208;5.488;2023-07-20T12:13:57;5.22;;;0.40;;
25439;SDS011;13365;52.208;5.488;2023-07-20T12:16:26;0.43;;;0.30;;
25439;SDS011;13365;52.208;5.488;2023-07-20T12:19:02;1.77;;;0.30;;
25439;SDS011;13365;52.208;5.488;2023-07-20T12:21:34;0.73;;;0.40;;
25439;SDS011;13365;52.208;5.488;2023-07-20T12:24:04;1.08;;;0.40;;
25439;SDS011;13365;52.208;5.488;2023-07-20T12:26:30;0.20;;;0.15;;
25439;SDS011;13365;52.208;5.488;2023-07-20T12:28:56;2.63;;;0.70;;
25439;SDS011;13365;52.208;5.488;2023-07-20T12:31:23;0.85;;;0.40;;
25439;SDS011;13365;52.208;5.488;2023-07-20T12:33:49;2.35;;;0.40;;
25439;SDS011;13365;52.208;5.488;2023-07-20T12:36:15;3.05;;;0.88;;
25439;SDS011;13365;52.208;5.488;2023-07-20T12:38:42;3.95;;;0.65;;
25439;SDS011;13365;52.208;5.488;2023-07-20T12:41:09;3.20;;;0.52;;
25439;SDS011;13365;52.208;5.488;2023-07-20T12:43:37;2.22;;;0.38;;
25439;SDS011;13365;52.208;5.488;2023-07-20T12:46:03;1.25;;;0.40;;
25439;SDS011;13365;52.208;5.488;2023-07-20T12:48:28;1.05;;;0.50;;
25439;SDS011;13365;52.208;5.488;2023-07-20T12:50:54;1.73;;;0.60;;
25439;SDS011;13365;52.208;5.488;2023-07-20T12:53:20;1.50;;;0.50;;
25439;SDS011;13365;52.208;5.488;2023-07-20T12:55:46;1.80;;;0.60;;
25439;SDS011;13365;52.208;5.488;2023-07-20T12:58:11;1.08;;;0.50;;
25439;SDS011;13365;52.208;5.488;2023-07-20T13:00:38;2.58;;;0.50;;
25439;SDS011;13365;52.208;5.488;2023-07-20T13:03:03;6.60;;;1.10;;
25439;SDS011;13365;52.208;5.488;2023-07-20T13:05:30;1.63;;;0.50;;
25439;SDS011;13365;52.208;5.488;2023-07-20T13:07:56;3.83;;;0.75;;
25439;SDS011;13365;52.208;5.488;2023-07-20T13:10:23;1.95;;;0.82;;
25439;SDS011;13365;52.208;5.488;2023-07-20T13:12:49;3.25;;;0.63;;
25439;SDS011;13365;52.208;5.488;2023-07-20T13:15:14;0.82;;;0.35;;
25439;SDS011;13365;52.208;5.488;2023-07-20T13:17:40;0.40;;;0.40;;
25439;SDS011;13365;52.208;5.488;2023-07-20T13:20:06;1.33;;;0.60;;
25439;SDS011;13365;52.208;5.488;2023-07-20T13:22:34;1.00;;;0.50;;
25439;SDS011;13365;52.208;5.488;2023-07-20T13:25:01;1.25;;;0.35;;
25439;SDS011;13365;52.208;5.488;2023-07-20T13:27:26;3.72;;;0.40;;
25439;SDS011;13365;52.208;5.488;2023-07-20T13:29:52;0.28;;;0.20;;
25439;SDS011;13365;52.208;5.488;2023-07-20T13:32:18;1.83;;;0.60;;
25439;SDS011;13365;52.208;5.488;2023-07-20T13:34:44;1.92;;;0.50;;
25439;SDS011;13365;52.208;5.488;2023-07-20T13:37:10;1.35;;;0.50;;
25439;SDS011;13365;52.208;5.488;2023-07-20T13:39:36;1.75;;;0.50;;
25439;SDS011;13365;52.208;5.488;2023-07-20T13:42:02;1.00;;;0.40;;
25439;SDS011;13365;52.208;5.488;2023-07-20T13:44:30;3.10;;;0.70;;
25439;SDS011;13365;52.208;5.488;2023-07-20T13:46:56;0.75;;;0.47;;
25439;SDS011;13365;52.208;5.488;2023-07-20T13:49:21;4.95;;;0.70;;
25439;SDS011;13365;52.208;5.488;2023-07-20T13:51:47;1.52;;;0.40;;
25439;SDS011;13365;52.208;5.488;2023-07-20T13:54:13;1.20;;;0.50;;
25439;SDS011;13365;52.208;5.488;2023-07-20T13:56:38;1.25;;;0.70;;
25439;SDS011;13365;52.208;5.488;2023-07-20T13:59:04;1.75;;;0.90;;
25439;SDS011;13365;52.208;5.488;2023-07-20T14:01:29;3.40;;;0.88;;
25439;SDS011;13365;52.208;5.488;2023-07-20T14:03:57;10.07;;;1.30;;
25439;SDS011;13365;52.208;5.488;2023-07-20T14:06:23;2.95;;;0.93;;
25439;SDS011;13365;52.208;5.488;2023-07-20T14:08:48;1.55;;;0.80;;
25439;SDS011;13365;52.208;5.488;2023-07-20T14:11:15;1.20;;;0.60;;
25439;SDS011;13365;52.208;5.488;2023-07-20T14:13:41;2.38;;;0.73;;
25439;SDS011;13365;52.208;5.488;2023-07-20T14:16:07;1.50;;;1.10;;
25439;SDS011;13365;52.208;5.488;2023-07-20T14:18:33;1.52;;;0.75;;
25439;SDS011;13365;52.208;5.488;2023-07-20T14:20:58;1.45;;;0.73;;
25439;SDS011;13365;52.208;5.488;2023-07-20T14:23:24;2.10;;;0.60;;
25439;SDS011;13365;52.208;5.488;2023-07-20T14:25:49;2.13;;;0.60;;
25439;SDS011;13365;52.208;5.488;2023-07-20T14:28:15;6.25;;;0.93;;
25439;SDS011;13365;52.208;5.488;2023-07-20T14:30:41;3.05;;;0.60;;
25439;SDS011;13365;52.208;5.488;2023-07-20T14:33:06;1.45;;;0.70;;
25439;SDS011;13365;52.208;5.488;2023-07-20T14:35:33;1.42;;;0.90;;
25439;SDS011;13365;52.208;5.488;2023-07-20T14:37:59;0.80;;;0.52;;
25439;SDS011;13365;52.208;5.488;2023-07-20T14:40:25;1.08;;;0.70;;
25439;SDS011;13365;52.208;5.488;2023-07-20T14:42:51;2.65;;;0.95;;
25439;SDS011;13365;52.208;5.488;2023-07-20T14:45:17;0.73;;;0.45;;
25439;SDS011;13365;52.208;5.488;2023-07-20T14:47:43;0.90;;;0.60;;
25439;SDS011;13365;52.208;5.488;2023-07-20T14:50:10;1.88;;;0.90;;
25439;SDS011;13365;52.208;5.488;2023-07-20T14:52:35;1.40;;;0.90;;
25439;SDS011;13365;52.208;5.488;2023-07-20T14:55:01;0.73;;;0.60;;
25439;SDS011;13365;52.208;5.488;2023-07-20T14:57:26;0.80;;;0.60;;
25439;SDS011;13365;52.208;5.488;2023-07-20T14:59:52;1.15;;;0.63;;
25439;SDS011;13365;52.208;5.488;2023-07-20T15:02:18;1.63;;;0.82;;
25439;SDS011;13365;52.208;5.488;2023-07-20T15:04:47;1.35;;;0.80;;
25439;SDS011;13365;52.208;5.488;2023-07-20T15:07:19;3.38;;;0.77;;